sensor_id;sensor_type;location;lat;lon;timestamp;pressure;altitude;pressure_sealevel;temperature;humidity
78409;BME280;67697;50.750;-3.270;2023-07-13T00:00:20;100925.99;;;18.09;51.78
78409;BME280;67697;50.750;-3.270;2023-07-13T00:02:45;100924.21;;;18.19;51.62
78409;BME280;67697;50.750;-3.270;2023-07-13T00:05:11;100923.68;;;18.45;51.13
78409;BME280;67697;50.750;-3.270;2023-07-13T00:07:37;100926.35;;;18.37;51.15
78409;BME280;67697;50.750;-3.270;2023-07-13T00:10:05;100922.30;;;19.09;49.92
78409;BME280;67697;50.750;-3.270;2023-07-13T00:12:29;100919.62;;;17.79;51.40
78409;BME280;67697;50.750;-3.270;2023-07-13T00:14:53;100918.09;;;17.24;53.03
78409;BME280;67697;50.750;-3.270;2023-07-13T00:17:19;100916.74;;;17.26;53.06
78409;BME280;67697;50.750;-3.270;2023-07-13T00:19:45;100915.69;;;18.70;50.48
78409;BME280;67697;50.750;-3.270;2023-07-13T00:22:10;100916.55;;;16.68;53.75
78409;BME280;67697;50.750;-3.270;2023-07-13T00:24:36;100911.85;;;17.48;52.56
78409;BME280;67697;50.750;-3.270;2023-07-13T00:27:01;100906.63;;;18.64;49.90
78409;BME280;67697;50.750;-3.270;2023-07-13T00:29:32;100903.84;;;18.62;50.03
78409;BME280;67697;50.750;-3.270;2023-07-13T00:31:52;100901.28;;;17.96;51.00
78409;BME280;67697;50.750;-3.270;2023-07-13T00:34:18;100900.28;;;17.60;52.13
78409;BME280;67697;50.750;-3.270;2023-07-13T00:36:44;100902.57;;;17.28;52.76
78409;BME280;67697;50.750;-3.270;2023-07-13T00:39:09;100904.99;;;17.70;51.55
78409;BME280;67697;50.750;-3.270;2023-07-13T00:41:35;100900.98;;;17.74;51.73
78409;BME280;67697;50.750;-3.270;2023-07-13T00:44:01;100895.80;;;18.99;49.57
78409;BME280;67697;50.750;-3.270;2023-07-13T00:46:28;100894.61;;;18.54;50.05
78409;BME280;67697;50.750;-3.270;2023-07-13T00:48:54;100897.43;;;17.01;53.42
78409;BME280;67697;50.750;-3.270;2023-07-13T00:51:21;100897.14;;;18.16;50.97
78409;BME280;67697;50.750;-3.270;2023-07-13T00:53:43;100894.61;;;18.78;49.95
78409;BME280;67697;50.750;-3.270;2023-07-13T00:56:08;100901.65;;;16.76;53.80
78409;BME280;67697;50.750;-3.270;2023-07-13T00:58:35;100898.94;;;18.64;50.84
78409;BME280;67697;50.750;-3.270;2023-07-13T01:00:59;100895.97;;;18.82;50.19
78409;BME280;67697;50.750;-3.270;2023-07-13T01:03:25;100891.95;;;18.94;50.11
78409;BME280;67697;50.750;-3.270;2023-07-13T01:05:51;100896.17;;;17.94;52.08
78409;BME280;67697;50.750;-3.270;2023-07-13T01:08:16;100894.47;;;19.15;49.52
78409;BME280;67697;50.750;-3.270;2023-07-13T01:10:52;100894.12;;;19.05;49.71
78409;BME280;67697;50.750;-3.270;2023-07-13T01:13:12;100894.35;;;18.66;50.84
78409;BME280;67697;50.750;-3.270;2023-07-13T01:15:36;100894.72;;;19.15;50.11
78409;BME280;67697;50.750;-3.270;2023-07-13T01:18:00;100893.66;;;16.80;54.66
78409;BME280;67697;50.750;-3.270;2023-07-13T01:20:24;100892.67;;;17.53;54.28
78409;BME280;67697;50.750;-3.270;2023-07-13T01:22:50;100895.52;;;15.71;57.36
78409;BME280;67697;50.750;-3.270;2023-07-13T01:25:16;100893.99;;;18.03;53.43
78409;BME280;67697;50.750;-3.270;2023-07-13T01:27:41;100892.84;;;17.98;52.70
78409;BME280;67697;50.750;-3.270;2023-07-13T01:30:07;100894.59;;;19.33;50.66
78409;BME280;67697;50.750;-3.270;2023-07-13T01:32:32;100895.58;;;19.80;49.49
78409;BME280;67697;50.750;-3.270;2023-07-13T01:34:58;100895.99;;;19.62;49.52
78409;BME280;67697;50.750;-3.270;2023-07-13T01:37:24;100897.58;;;17.89;53.02
78409;BME280;67697;50.750;-3.270;2023-07-13T01:39:49;100897.20;;;19.58;49.81
78409;BME280;67697;50.750;-3.270;2023-07-13T01:42:15;100890.94;;;18.81;51.12
78409;BME280;67697;50.750;-3.270;2023-07-13T01:44:41;100890.17;;;19.65;49.56
78409;BME280;67697;50.750;-3.270;2023-07-13T01:47:06;100891.56;;;18.95;51.07
78409;BME280;67697;50.750;-3.270;2023-07-13T01:49:32;100889.45;;;20.16;48.74
78409;BME280;67697;50.750;-3.270;2023-07-13T01:51:56;100892.84;;;18.48;52.50
78409;BME280;67697;50.750;-3.270;2023-07-13T01:54:22;100896.13;;;19.59;49.92
78409;BME280;67697;50.750;-3.270;2023-07-13T01:56:48;100894.95;;;19.73;49.62
78409;BME280;67697;50.750;-3.270;2023-07-13T01:59:13;100891.85;;;19.30;50.31
78409;BME280;67697;50.750;-3.270;2023-07-13T02:01:39;100893.25;;;20.13;48.77
78409;BME280;67697;50.750;-3.270;2023-07-13T02:04:05;100891.76;;;20.26;48.61
78409;BME280;67697;50.750;-3.270;2023-07-13T02:06:30;100887.60;;;18.81;51.19
78409;BME280;67697;50.750;-3.270;2023-07-13T02:08:55;100889.24;;;19.64;49.32
78409;BME280;67697;50.750;-3.270;2023-07-13T02:11:21;100890.41;;;19.32;49.48
78409;BME280;67697;50.750;-3.270;2023-07-13T02:13:52;100889.36;;;19.87;49.34
78409;BME280;67697;50.750;-3.270;2023-07-13T02:16:32;100887.92;;;20.17;49.49
78409;BME280;67697;50.750;-3.270;2023-07-13T02:18:38;100884.72;;;19.61;49.42
78409;BME280;67697;50.750;-3.270;2023-07-13T02:21:09;100884.09;;;18.16;52.18
78409;BME280;67697;50.750;-3.270;2023-07-13T02:23:29;100882.15;;;18.99;50.67
78409;BME280;67697;50.750;-3.270;2023-07-13T02:25:55;100880.63;;;19.39;49.85
78409;BME280;67697;50.750;-3.270;2023-07-13T02:28:20;100875.72;;;19.14;50.12
78409;BME280;67697;50.750;-3.270;2023-07-13T02:30:45;100879.23;;;19.43;49.85
78409;BME280;67697;50.750;-3.270;2023-07-13T02:33:11;100873.99;;;19.16;49.74
78409;BME280;67697;50.750;-3.270;2023-07-13T02:35:36;100871.17;;;18.98;50.03
78409;BME280;67697;50.750;-3.270;2023-07-13T02:38:02;100872.60;;;19.10;50.97
78409;BME280;67697;50.750;-3.270;2023-07-13T02:40:28;100868.55;;;19.25;50.34
78409;BME280;67697;50.750;-3.270;2023-07-13T02:42:54;100867.88;;;19.18;50.37
78409;BME280;67697;50.750;-3.270;2023-07-13T02:45:19;100866.66;;;19.13;50.31
78409;BME280;67697;50.750;-3.270;2023-07-13T02:47:44;100866.38;;;19.96;48.94
78409;BME280;67697;50.750;-3.270;2023-07-13T02:50:10;100867.57;;;19.71;49.29
78409;BME280;67697;50.750;-3.270;2023-07-13T02:52:36;100868.14;;;18.91;51.04
78409;BME280;67697;50.750;-3.270;2023-07-13T02:55:01;100866.11;;;20.18;48.63
78409;BME280;67697;50.750;-3.270;2023-07-13T02:57:27;100864.05;;;20.61;48.40
78409;BME280;67697;50.750;-3.270;2023-07-13T02:59:52;100866.21;;;19.00;51.06
78409;BME280;67697;50.750;-3.270;2023-07-13T03:02:18;100865.43;;;19.65;50.34
78409;BME280;67697;50.750;-3.270;2023-07-13T03:04:43;100860.29;;;20.51;49.13
78409;BME280;67697;50.750;-3.270;2023-07-13T03:07:10;100860.89;;;19.64;50.57
78409;BME280;67697;50.750;-3.270;2023-07-13T03:09:35;100863.11;;;19.97;50.52
78409;BME280;67697;50.750;-3.270;2023-07-13T03:12:00;100864.75;;;19.22;52.25
78409;BME280;67697;50.750;-3.270;2023-07-13T03:14:26;100867.85;;;18.62;53.78
78409;BME280;67697;50.750;-3.270;2023-07-13T03:16:54;100865.66;;;19.61;52.13
78409;BME280;67697;50.750;-3.270;2023-07-13T03:19:22;100863.63;;;17.98;54.74
78409;BME280;67697;50.750;-3.270;2023-07-13T03:21:42;100860.65;;;19.50;51.67
78409;BME280;67697;50.750;-3.270;2023-07-13T03:24:08;100859.39;;;19.85;50.39
78409;BME280;67697;50.750;-3.270;2023-07-13T03:26:33;100859.58;;;19.93;51.01
78409;BME280;67697;50.750;-3.270;2023-07-13T03:29:02;100860.53;;;19.31;52.12
78409;BME280;67697;50.750;-3.270;2023-07-13T03:31:27;100864.57;;;18.61;53.81
78409;BME280;67697;50.750;-3.270;2023-07-13T03:33:50;100861.85;;;19.52;52.22
78409;BME280;67697;50.750;-3.270;2023-07-13T03:36:21;100862.85;;;18.96;52.50
78409;BME280;67697;50.750;-3.270;2023-07-13T03:38:41;100868.19;;;18.74;52.67
78409;BME280;67697;50.750;-3.270;2023-07-13T03:41:07;100862.71;;;19.23;51.76
78409;BME280;67697;50.750;-3.270;2023-07-13T03:43:32;100860.85;;;19.03;52.15
78409;BME280;67697;50.750;-3.270;2023-07-13T03:45:58;100860.88;;;19.29;51.47
78409;BME280;67697;50.750;-3.270;2023-07-13T03:48:23;100865.86;;;17.06;56.92
78409;BME280;67697;50.750;-3.270;2023-07-13T03:50:49;100868.78;;;17.32;56.56
78409;BME280;67697;50.750;-3.270;2023-07-13T03:53:15;100866.50;;;18.14;54.87
78409;BME280;67697;50.750;-3.270;2023-07-13T03:55:40;100869.95;;;18.30;53.76
78409;BME280;67697;50.750;-3.270;2023-07-13T03:58:26;100872.43;;;18.61;53.31
78409;BME280;67697;50.750;-3.270;2023-07-13T04:00:31;100874.07;;;17.99;53.29
78409;BME280;67697;50.750;-3.270;2023-07-13T04:02:57;100876.63;;;18.44;52.50
78409;BME280;67697;50.750;-3.270;2023-07-13T04:05:23;100875.52;;;18.69;52.29
78409;BME280;67697;50.750;-3.270;2023-07-13T04:07:48;100874.89;;;18.56;52.14
78409;BME280;67697;50.750;-3.270;2023-07-13T04:10:14;100875.62;;;18.60;52.00
78409;BME280;67697;50.750;-3.270;2023-07-13T04:12:44;100878.64;;;18.88;51.73
78409;BME280;67697;50.750;-3.270;2023-07-13T04:15:09;100878.46;;;19.24;51.31
78409;BME280;67697;50.750;-3.270;2023-07-13T04:17:30;100879.60;;;18.76;52.07
78409;BME280;67697;50.750;-3.270;2023-07-13T04:19:56;100882.64;;;19.42;50.82
78409;BME280;67697;50.750;-3.270;2023-07-13T04:22:21;100884.25;;;19.06;51.07
78409;BME280;67697;50.750;-3.270;2023-07-13T04:24:47;100887.60;;;19.59;50.72
78409;BME280;67697;50.750;-3.270;2023-07-13T04:27:14;100888.55;;;19.34;51.18
78409;BME280;67697;50.750;-3.270;2023-07-13T04:29:38;100888.68;;;18.09;53.34
78409;BME280;67697;50.750;-3.270;2023-07-13T04:32:04;100889.95;;;18.53;52.78
78409;BME280;67697;50.750;-3.270;2023-07-13T04:34:29;100892.51;;;18.33;53.50
78409;BME280;67697;50.750;-3.270;2023-07-13T04:37:00;100891.11;;;19.00;52.49
78409;BME280;67697;50.750;-3.270;2023-07-13T04:39:20;100893.58;;;19.15;52.14
78409;BME280;67697;50.750;-3.270;2023-07-13T04:41:46;100895.13;;;19.00;52.36
78409;BME280;67697;50.750;-3.270;2023-07-13T04:44:13;100896.06;;;19.43;51.55
78409;BME280;67697;50.750;-3.270;2023-07-13T04:46:37;100895.45;;;19.49;51.58
78409;BME280;67697;50.750;-3.270;2023-07-13T04:49:08;100900.08;;;18.68;53.93
78409;BME280;67697;50.750;-3.270;2023-07-13T04:51:29;100900.79;;;18.21;54.80
78409;BME280;67697;50.750;-3.270;2023-07-13T04:53:54;100898.99;;;18.55;54.66
78409;BME280;67697;50.750;-3.270;2023-07-13T04:56:19;100900.36;;;17.82;56.21
78409;BME280;67697;50.750;-3.270;2023-07-13T04:58:50;100901.94;;;19.07;53.68
78409;BME280;67697;50.750;-3.270;2023-07-13T05:01:11;100901.83;;;18.57;54.26
78409;BME280;67697;50.750;-3.270;2023-07-13T05:03:36;100904.73;;;18.62;54.58
78409;BME280;67697;50.750;-3.270;2023-07-13T05:06:04;100901.03;;;17.79;58.22
78409;BME280;67697;50.750;-3.270;2023-07-13T05:08:27;100897.67;;;17.69;58.12
78409;BME280;67697;50.750;-3.270;2023-07-13T05:11:04;100899.04;;;17.29;59.60
78409;BME280;67697;50.750;-3.270;2023-07-13T05:13:19;100898.36;;;17.98;58.10
78409;BME280;67697;50.750;-3.270;2023-07-13T05:15:44;100898.26;;;18.41;56.65
78409;BME280;67697;50.750;-3.270;2023-07-13T05:18:10;100898.79;;;18.52;56.49
78409;BME280;67697;50.750;-3.270;2023-07-13T05:20:35;100900.96;;;17.52;58.24
78409;BME280;67697;50.750;-3.270;2023-07-13T05:23:06;100901.55;;;18.28;57.19
78409;BME280;67697;50.750;-3.270;2023-07-13T05:25:26;100896.56;;;18.30;57.39
78409;BME280;67697;50.750;-3.270;2023-07-13T05:27:52;100894.93;;;18.40;57.56
78409;BME280;67697;50.750;-3.270;2023-07-13T05:30:17;100897.88;;;18.46;57.00
78409;BME280;67697;50.750;-3.270;2023-07-13T05:32:43;100904.96;;;18.13;58.06
78409;BME280;67697;50.750;-3.270;2023-07-13T05:35:09;100906.90;;;17.41;60.05
78409;BME280;67697;50.750;-3.270;2023-07-13T05:37:35;100909.60;;;17.27;60.59
78409;BME280;67697;50.750;-3.270;2023-07-13T05:40:00;100911.83;;;16.93;62.33
78409;BME280;67697;50.750;-3.270;2023-07-13T05:42:30;100918.98;;;17.17;61.80
78409;BME280;67697;50.750;-3.270;2023-07-13T05:44:51;100923.75;;;17.22;61.85
78409;BME280;67697;50.750;-3.270;2023-07-13T05:47:16;100925.43;;;17.95;59.51
78409;BME280;67697;50.750;-3.270;2023-07-13T05:49:42;100931.81;;;17.54;60.35
78409;BME280;67697;50.750;-3.270;2023-07-13T05:52:08;100932.71;;;17.32;60.73
78409;BME280;67697;50.750;-3.270;2023-07-13T05:54:33;100933.06;;;18.25;58.98
78409;BME280;67697;50.750;-3.270;2023-07-13T05:56:59;100934.40;;;18.10;58.67
78409;BME280;67697;50.750;-3.270;2023-07-13T05:59:24;100939.17;;;18.90;57.53
78409;BME280;67697;50.750;-3.270;2023-07-13T06:01:50;100943.82;;;17.92;57.80
78409;BME280;67697;50.750;-3.270;2023-07-13T06:04:15;100948.55;;;18.94;55.92
78409;BME280;67697;50.750;-3.270;2023-07-13T06:06:41;100953.56;;;19.04;55.38
78409;BME280;67697;50.750;-3.270;2023-07-13T06:09:07;100954.10;;;19.03;55.59
78409;BME280;67697;50.750;-3.270;2023-07-13T06:11:33;100950.46;;;19.41;55.02
78409;BME280;67697;50.750;-3.270;2023-07-13T06:14:00;100953.72;;;18.83;56.20
78409;BME280;67697;50.750;-3.270;2023-07-13T06:16:23;100960.56;;;18.02;58.54
78409;BME280;67697;50.750;-3.270;2023-07-13T06:18:49;100961.25;;;17.44;61.74
78409;BME280;67697;50.750;-3.270;2023-07-13T06:21:16;100964.37;;;16.72;63.73
78409;BME280;67697;50.750;-3.270;2023-07-13T06:23:40;100968.40;;;16.74;63.96
78409;BME280;67697;50.750;-3.270;2023-07-13T06:26:06;100973.43;;;16.86;63.94
78409;BME280;67697;50.750;-3.270;2023-07-13T06:28:31;100976.88;;;17.38;62.71
78409;BME280;67697;50.750;-3.270;2023-07-13T06:30:58;100978.74;;;17.25;62.38
78409;BME280;67697;50.750;-3.270;2023-07-13T06:33:22;100981.60;;;17.86;59.60
78409;BME280;67697;50.750;-3.270;2023-07-13T06:35:48;100983.22;;;17.77;60.37
78409;BME280;67697;50.750;-3.270;2023-07-13T06:38:13;100985.68;;;18.17;59.69
78409;BME280;67697;50.750;-3.270;2023-07-13T06:40:39;100984.24;;;17.90;59.43
78409;BME280;67697;50.750;-3.270;2023-07-13T06:43:04;100982.53;;;18.28;59.64
78409;BME280;67697;50.750;-3.270;2023-07-13T06:45:42;100987.27;;;18.30;59.13
78409;BME280;67697;50.750;-3.270;2023-07-13T06:47:55;100989.49;;;18.38;59.07
78409;BME280;67697;50.750;-3.270;2023-07-13T06:50:26;100989.37;;;18.36;59.30
78409;BME280;67697;50.750;-3.270;2023-07-13T06:52:46;100991.74;;;18.50;59.14
78409;BME280;67697;50.750;-3.270;2023-07-13T06:55:12;100993.46;;;17.37;61.78
78409;BME280;67697;50.750;-3.270;2023-07-13T06:57:37;100991.87;;;17.58;61.57
78409;BME280;67697;50.750;-3.270;2023-07-13T07:00:07;100992.76;;;18.21;60.94
78409;BME280;67697;50.750;-3.270;2023-07-13T07:02:28;100999.42;;;18.52;58.63
78409;BME280;67697;50.750;-3.270;2023-07-13T07:04:54;100998.25;;;17.75;59.96
78409;BME280;67697;50.750;-3.270;2023-07-13T07:07:38;100996.10;;;17.41;60.37
78409;BME280;67697;50.750;-3.270;2023-07-13T07:10:01;100994.53;;;17.02;61.06
78409;BME280;67697;50.750;-3.270;2023-07-13T07:12:16;100994.46;;;16.95;62.68
78409;BME280;67697;50.750;-3.270;2023-07-13T07:14:36;101000.95;;;16.48;64.68
78409;BME280;67697;50.750;-3.270;2023-07-13T07:17:02;100997.88;;;16.88;63.33
78409;BME280;67697;50.750;-3.270;2023-07-13T07:19:29;101002.81;;;16.54;65.15
78409;BME280;67697;50.750;-3.270;2023-07-13T07:21:58;100999.43;;;16.62;64.09
78409;BME280;67697;50.750;-3.270;2023-07-13T07:24:19;100998.69;;;17.81;61.51
78409;BME280;67697;50.750;-3.270;2023-07-13T07:26:44;101000.54;;;17.67;61.02
78409;BME280;67697;50.750;-3.270;2023-07-13T07:29:09;100996.42;;;18.12;59.99
78409;BME280;67697;50.750;-3.270;2023-07-13T07:31:35;100996.60;;;18.08;59.79
78409;BME280;67697;50.750;-3.270;2023-07-13T07:34:01;100998.52;;;17.75;59.72
78409;BME280;67697;50.750;-3.270;2023-07-13T07:36:26;100997.48;;;17.56;59.96
78409;BME280;67697;50.750;-3.270;2023-07-13T07:38:52;100997.86;;;18.02;58.92
78409;BME280;67697;50.750;-3.270;2023-07-13T07:41:22;100997.83;;;17.87;58.12
78409;BME280;67697;50.750;-3.270;2023-07-13T07:43:43;100999.96;;;18.15;55.46
78409;BME280;67697;50.750;-3.270;2023-07-13T07:46:08;101002.46;;;18.18;56.28
78409;BME280;67697;50.750;-3.270;2023-07-13T07:48:34;101006.12;;;17.91;59.28
78409;BME280;67697;50.750;-3.270;2023-07-13T07:50:59;101012.30;;;17.80;58.68
78409;BME280;67697;50.750;-3.270;2023-07-13T07:53:25;101012.75;;;17.88;57.24
78409;BME280;67697;50.750;-3.270;2023-07-13T07:55:51;101011.92;;;17.31;59.79
78409;BME280;67697;50.750;-3.270;2023-07-13T07:58:16;101010.86;;;17.96;58.49
78409;BME280;67697;50.750;-3.270;2023-07-13T08:00:41;101006.00;;;17.91;57.98
78409;BME280;67697;50.750;-3.270;2023-07-13T08:03:07;101002.72;;;19.06;55.25
78409;BME280;67697;50.750;-3.270;2023-07-13T08:05:36;101005.17;;;18.85;56.06
78409;BME280;67697;50.750;-3.270;2023-07-13T08:07:58;101002.51;;;18.44;56.31
78409;BME280;67697;50.750;-3.270;2023-07-13T08:10:23;101005.18;;;18.23;58.23
78409;BME280;67697;50.750;-3.270;2023-07-13T08:12:49;101009.38;;;18.54;57.19
78409;BME280;67697;50.750;-3.270;2023-07-13T08:15:34;101010.74;;;17.34;58.80
78409;BME280;67697;50.750;-3.270;2023-07-13T08:17:45;101006.82;;;18.02;56.70
78409;BME280;67697;50.750;-3.270;2023-07-13T08:20:07;101009.79;;;18.92;54.78
78409;BME280;67697;50.750;-3.270;2023-07-13T08:22:31;101014.32;;;18.06;58.97
78409;BME280;67697;50.750;-3.270;2023-07-13T08:24:56;101012.12;;;18.34;56.04
78409;BME280;67697;50.750;-3.270;2023-07-13T08:27:23;101011.54;;;17.65;56.76
78409;BME280;67697;50.750;-3.270;2023-07-13T08:29:49;101011.22;;;18.50;55.67
78409;BME280;67697;50.750;-3.270;2023-07-13T08:32:14;101007.15;;;18.54;55.12
78409;BME280;67697;50.750;-3.270;2023-07-13T08:34:39;101002.23;;;18.32;55.93
78409;BME280;67697;50.750;-3.270;2023-07-13T08:37:05;101000.58;;;18.39;55.02
78409;BME280;67697;50.750;-3.270;2023-07-13T08:39:35;101002.72;;;17.62;58.91
78409;BME280;67697;50.750;-3.270;2023-07-13T08:42:00;101004.93;;;17.94;55.35
78409;BME280;67697;50.750;-3.270;2023-07-13T08:44:34;101008.95;;;18.69;55.49
78409;BME280;67697;50.750;-3.270;2023-07-13T08:46:47;101003.59;;;19.17;52.17
78409;BME280;67697;50.750;-3.270;2023-07-13T08:49:15;101006.70;;;18.88;50.20
78409;BME280;67697;50.750;-3.270;2023-07-13T08:51:41;101010.28;;;19.82;50.22
78409;BME280;67697;50.750;-3.270;2023-07-13T08:54:10;101015.04;;;20.01;47.31
78409;BME280;67697;50.750;-3.270;2023-07-13T08:56:30;101014.43;;;19.41;47.91
78409;BME280;67697;50.750;-3.270;2023-07-13T08:58:56;101013.34;;;19.31;48.00
78409;BME280;67697;50.750;-3.270;2023-07-13T09:01:23;101014.77;;;18.92;51.27
78409;BME280;67697;50.750;-3.270;2023-07-13T09:03:52;101017.79;;;19.26;49.98
78409;BME280;67697;50.750;-3.270;2023-07-13T09:06:11;101017.34;;;19.67;47.30
78409;BME280;67697;50.750;-3.270;2023-07-13T09:08:46;101018.68;;;19.92;48.93
78409;BME280;67697;50.750;-3.270;2023-07-13T09:11:13;101021.23;;;19.92;46.68
78409;BME280;67697;50.750;-3.270;2023-07-13T09:13:31;101018.86;;;20.51;45.22
78409;BME280;67697;50.750;-3.270;2023-07-13T09:15:59;101015.42;;;19.14;49.74
78409;BME280;67697;50.750;-3.270;2023-07-13T09:18:23;101013.91;;;20.26;46.79
78409;BME280;67697;50.750;-3.270;2023-07-13T09:20:48;101010.51;;;20.83;45.20
78409;BME280;67697;50.750;-3.270;2023-07-13T09:23:14;101012.74;;;20.91;44.43
78409;BME280;67697;50.750;-3.270;2023-07-13T09:25:36;101013.56;;;21.58;43.64
78409;BME280;67697;50.750;-3.270;2023-07-13T09:28:05;101018.00;;;20.88;45.11
78409;BME280;67697;50.750;-3.270;2023-07-13T09:30:31;101019.25;;;20.32;48.33
78409;BME280;67697;50.750;-3.270;2023-07-13T09:32:52;101014.59;;;21.03;44.12
78409;BME280;67697;50.750;-3.270;2023-07-13T09:35:19;101021.12;;;20.34;47.44
78409;BME280;67697;50.750;-3.270;2023-07-13T09:37:44;101019.48;;;19.67;50.15
78409;BME280;67697;50.750;-3.270;2023-07-13T09:40:13;101021.40;;;19.34;47.05
78409;BME280;67697;50.750;-3.270;2023-07-13T09:42:32;101026.22;;;18.29;52.39
78409;BME280;67697;50.750;-3.270;2023-07-13T09:47:48;101038.61;;;17.17;57.48
78409;BME280;67697;50.750;-3.270;2023-07-13T09:50:02;101043.92;;;17.22;60.53
78409;BME280;67697;50.750;-3.270;2023-07-13T09:52:15;101046.04;;;16.88;60.68
78409;BME280;67697;50.750;-3.270;2023-07-13T09:54:43;101043.60;;;17.69;58.98
78409;BME280;67697;50.750;-3.270;2023-07-13T09:57:13;101055.70;;;16.75;61.83
78409;BME280;67697;50.750;-3.270;2023-07-13T09:59:35;101058.21;;;17.08;60.66
78409;BME280;67697;50.750;-3.270;2023-07-13T10:01:56;101061.39;;;17.72;57.95
78409;BME280;67697;50.750;-3.270;2023-07-13T10:04:30;101074.99;;;16.91;59.30
78409;BME280;67697;50.750;-3.270;2023-07-13T10:06:47;101090.87;;;16.41;64.98
78409;BME280;67697;50.750;-3.270;2023-07-13T10:09:16;101097.22;;;15.86;68.80
78409;BME280;67697;50.750;-3.270;2023-07-13T10:11:40;101096.48;;;15.88;67.73
78409;BME280;67697;50.750;-3.270;2023-07-13T10:14:11;101098.07;;;16.09;65.05
78409;BME280;67697;50.750;-3.270;2023-07-13T10:16:31;101099.77;;;16.14;65.70
78409;BME280;67697;50.750;-3.270;2023-07-13T10:18:57;101094.95;;;17.73;62.07
78409;BME280;67697;50.750;-3.270;2023-07-13T10:21:22;101093.16;;;18.37;59.79
78409;BME280;67697;50.750;-3.270;2023-07-13T10:23:50;101093.69;;;18.51;59.89
78409;BME280;67697;50.750;-3.270;2023-07-13T10:26:16;101092.45;;;18.66;58.20
78409;BME280;67697;50.750;-3.270;2023-07-13T10:28:38;101099.78;;;18.41;58.91
78409;BME280;67697;50.750;-3.270;2023-07-13T10:31:06;101094.30;;;17.15;61.23
78409;BME280;67697;50.750;-3.270;2023-07-13T10:33:28;101082.51;;;18.46;59.63
78409;BME280;67697;50.750;-3.270;2023-07-13T10:36:01;101078.51;;;18.97;57.13
78409;BME280;67697;50.750;-3.270;2023-07-13T10:38:22;101075.19;;;19.50;56.11
78409;BME280;67697;50.750;-3.270;2023-07-13T10:40:50;101074.11;;;19.67;52.80
78409;BME280;67697;50.750;-3.270;2023-07-13T10:43:14;101070.57;;;20.02;55.71
78409;BME280;67697;50.750;-3.270;2023-07-13T10:45:36;101073.16;;;21.51;51.64
78409;BME280;67697;50.750;-3.270;2023-07-13T10:48:01;101070.47;;;20.00;53.36
78409;BME280;67697;50.750;-3.270;2023-07-13T10:50:28;101070.30;;;20.92;51.34
78409;BME280;67697;50.750;-3.270;2023-07-13T10:52:53;101062.43;;;21.33;46.65
78409;BME280;67697;50.750;-3.270;2023-07-13T10:55:31;101065.91;;;20.73;49.10
78409;BME280;67697;50.750;-3.270;2023-07-13T10:57:43;101058.66;;;21.12;46.05
78409;BME280;67697;50.750;-3.270;2023-07-13T11:00:15;101057.20;;;20.49;47.82
78409;BME280;67697;50.750;-3.270;2023-07-13T11:02:34;101050.47;;;21.72;48.60
78409;BME280;67697;50.750;-3.270;2023-07-13T11:07:27;101056.25;;;20.23;49.60
78409;BME280;67697;50.750;-3.270;2023-07-13T11:09:52;101052.71;;;21.19;47.27
78409;BME280;67697;50.750;-3.270;2023-07-13T11:12:27;101051.34;;;20.45;49.05
78409;BME280;67697;50.750;-3.270;2023-07-13T11:15:03;101056.23;;;19.35;50.53
78409;BME280;67697;50.750;-3.270;2023-07-13T11:19:50;101057.23;;;18.90;50.98
78409;BME280;67697;50.750;-3.270;2023-07-13T11:22:20;101062.47;;;18.86;54.08
78409;BME280;67697;50.750;-3.270;2023-07-13T11:24:33;101072.26;;;18.37;55.91
78409;BME280;67697;50.750;-3.270;2023-07-13T11:26:52;101087.03;;;18.13;59.93
78409;BME280;67697;50.750;-3.270;2023-07-13T11:34:12;101092.45;;;16.89;69.47
78409;BME280;67697;50.750;-3.270;2023-07-13T11:36:57;101094.30;;;17.07;69.40
78409;BME280;67697;50.750;-3.270;2023-07-13T11:39:02;101089.41;;;17.20;69.88
78409;BME280;67697;50.750;-3.270;2023-07-13T11:41:27;101085.29;;;16.55;73.02
78409;BME280;67697;50.750;-3.270;2023-07-13T11:46:17;101070.25;;;17.97;75.96
78409;BME280;67697;50.750;-3.270;2023-07-13T11:48:40;101061.30;;;18.28;73.31
78409;BME280;67697;50.750;-3.270;2023-07-13T11:51:05;101053.16;;;19.16;72.22
78409;BME280;67697;50.750;-3.270;2023-07-13T11:53:34;101047.90;;;19.42;69.76
78409;BME280;67697;50.750;-3.270;2023-07-13T11:55:55;101050.04;;;18.62;70.97
78409;BME280;67697;50.750;-3.270;2023-07-13T11:58:25;101045.52;;;19.27;69.66
78409;BME280;67697;50.750;-3.270;2023-07-13T12:00:46;101065.33;;;18.45;70.32
78409;BME280;67697;50.750;-3.270;2023-07-13T12:03:13;101081.35;;;18.10;62.22
78409;BME280;67697;50.750;-3.270;2023-07-13T12:05:37;101083.05;;;17.21;65.65
78409;BME280;67697;50.750;-3.270;2023-07-13T12:08:09;101083.06;;;17.25;65.58
78409;BME280;67697;50.750;-3.270;2023-07-13T12:10:30;101082.06;;;16.56;67.20
78409;BME280;67697;50.750;-3.270;2023-07-13T12:12:56;101083.79;;;16.73;66.58
78409;BME280;67697;50.750;-3.270;2023-07-13T12:15:28;101082.84;;;16.26;68.66
78409;BME280;67697;50.750;-3.270;2023-07-13T12:17:56;101083.93;;;16.39;68.55
78409;BME280;67697;50.750;-3.270;2023-07-13T12:20:27;101082.64;;;17.11;65.53
78409;BME280;67697;50.750;-3.270;2023-07-13T12:22:36;101080.70;;;17.83;63.80
78409;BME280;67697;50.750;-3.270;2023-07-13T12:25:01;101078.84;;;18.67;62.18
78409;BME280;67697;50.750;-3.270;2023-07-13T12:27:28;101081.47;;;18.52;59.06
78409;BME280;67697;50.750;-3.270;2023-07-13T12:29:58;101081.72;;;18.23;60.66
78409;BME280;67697;50.750;-3.270;2023-07-13T12:34:53;101087.35;;;17.62;65.02
78409;BME280;67697;50.750;-3.270;2023-07-13T12:37:13;101085.86;;;17.86;62.71
78409;BME280;67697;50.750;-3.270;2023-07-13T12:39:37;101082.69;;;18.33;60.94
78409;BME280;67697;50.750;-3.270;2023-07-13T12:42:14;101080.58;;;18.48;60.52
78409;BME280;67697;50.750;-3.270;2023-07-13T12:44:31;101080.45;;;18.10;61.92
78409;BME280;67697;50.750;-3.270;2023-07-13T12:46:55;101080.98;;;18.45;60.97